createdAt,value
2023-05-14T00:01:24.280Z,33.40
2023-05-14T00:03:52.425Z,34.28
2023-05-14T00:06:20.140Z,35.80
2023-05-14T00:08:48.025Z,37.33
2023-05-14T00:11:15.994Z,37.00
2023-05-14T00:13:44.036Z,31.55
2023-05-14T00:16:12.309Z,28.98
2023-05-14T00:18:40.270Z,28.30
2023-05-14T00:21:07.963Z,25.85
2023-05-14T00:23:35.889Z,22.98
2023-05-14T00:26:03.579Z,27.38
2023-05-14T00:28:31.527Z,27.42
2023-05-14T00:30:59.169Z,24.95
2023-05-14T00:33:27.092Z,25.75
2023-05-14T00:35:54.812Z,26.85
2023-05-14T00:38:24.273Z,25.20
2023-05-14T00:40:52.117Z,24.70
2023-05-14T00:43:21.309Z,24.50
2023-05-14T00:45:51.744Z,26.48
2023-05-14T00:48:21.041Z,28.75
2023-05-14T00:50:50.777Z,28.67
2023-05-14T00:53:22.045Z,26.02
2023-05-14T00:55:50.480Z,26.20
2023-05-14T00:58:19.483Z,26.08
2023-05-14T01:00:47.326Z,26.17
2023-05-14T01:03:15.981Z,27.35
2023-05-14T01:06:14.174Z,25.92
2023-05-14T01:08:57.275Z,24.35
2023-05-14T01:11:41.417Z,23.88
2023-05-14T01:14:27.567Z,25.45
2023-05-14T01:16:59.614Z,24.63
2023-05-14T01:19:41.957Z,25.50
2023-05-14T01:22:10.004Z,25.88
2023-05-14T01:24:38.294Z,26.13
2023-05-14T01:27:30.073Z,26.67
2023-05-14T01:30:08.774Z,27.10
2023-05-14T01:32:37.421Z,25.88
2023-05-14T01:35:07.384Z,26.30
2023-05-14T01:37:36.574Z,27.17
2023-05-14T01:40:06.458Z,26.20
2023-05-14T01:42:34.584Z,26.88
2023-05-14T01:45:02.967Z,27.98
2023-05-14T01:47:31.034Z,28.00
2023-05-14T01:49:59.016Z,28.55
2023-05-14T01:52:26.696Z,28.55
2023-05-14T01:54:54.908Z,29.65
2023-05-14T01:57:22.796Z,29.08
2023-05-14T01:59:51.293Z,30.00
2023-05-14T02:02:19.351Z,30.23
2023-05-14T02:04:47.517Z,29.83
2023-05-14T02:07:15.181Z,29.90
2023-05-14T02:09:43.130Z,30.88
2023-05-14T02:12:11.775Z,30.45
2023-05-14T02:14:39.752Z,30.40
2023-05-14T02:17:07.530Z,29.25
2023-05-14T02:19:35.510Z,30.52
2023-05-14T02:22:03.324Z,29.77
2023-05-14T02:24:31.217Z,30.30
2023-05-14T02:27:01.107Z,32.05
2023-05-14T02:29:29.141Z,29.10
2023-05-14T02:31:57.360Z,30.05
2023-05-14T02:34:25.534Z,28.75
2023-05-14T02:36:53.286Z,29.50
2023-05-14T02:39:21.298Z,26.13
2023-05-14T02:41:49.060Z,25.85
2023-05-14T02:44:18.333Z,25.40
2023-05-14T02:46:46.145Z,26.13
2023-05-14T02:49:14.130Z,24.83
2023-05-14T02:51:41.783Z,25.48
2023-05-14T02:54:09.826Z,25.80
2023-05-14T02:56:37.483Z,25.48
2023-05-14T02:59:05.460Z,26.33
2023-05-14T03:01:33.523Z,28.10
2023-05-14T03:04:02.265Z,28.85
2023-05-14T03:06:29.985Z,28.38
2023-05-14T03:08:57.899Z,27.95
2023-05-14T03:11:25.582Z,27.23
2023-05-14T03:13:53.655Z,27.92
2023-05-14T03:16:21.393Z,29.10
2023-05-14T03:18:49.454Z,26.77
2023-05-14T03:21:17.187Z,26.77
2023-05-14T03:23:45.224Z,27.58
2023-05-14T03:26:12.924Z,28.30
2023-05-14T03:28:41.157Z,26.60
2023-05-14T03:31:08.912Z,25.90
2023-05-14T03:33:38.187Z,25.55
2023-05-14T03:36:06.180Z,25.75
2023-05-14T03:38:34.106Z,26.70
2023-05-14T03:41:01.721Z,26.60
2023-05-14T03:43:29.593Z,26.05
2023-05-14T03:45:57.350Z,26.08
2023-05-14T03:48:25.483Z,26.83
2023-05-14T03:50:53.353Z,25.30
2023-05-14T03:53:21.398Z,25.23
2023-05-14T03:55:49.121Z,26.00
2023-05-14T03:58:17.955Z,25.25
2023-05-14T04:00:46.045Z,24.85
2023-05-14T04:03:14.124Z,25.55
2023-05-14T04:05:41.890Z,25.88
2023-05-14T04:08:09.863Z,24.50
2023-05-14T04:10:37.761Z,23.20
2023-05-14T04:13:06.024Z,22.55
2023-05-14T04:15:39.233Z,20.88
2023-05-14T04:18:07.370Z,19.55
2023-05-14T04:20:35.430Z,18.75
2023-05-14T04:23:03.548Z,18.60
2023-05-14T04:25:31.249Z,18.20
2023-05-14T04:27:59.159Z,18.05
2023-05-14T04:30:27.025Z,17.63
2023-05-14T04:32:55.226Z,17.33
2023-05-14T04:35:24.992Z,16.88
2023-05-14T04:37:53.262Z,16.67
2023-05-14T04:40:22.834Z,16.35
2023-05-14T04:42:50.970Z,16.42
2023-05-14T04:45:18.729Z,16.10
2023-05-14T04:47:47.508Z,15.88
2023-05-14T04:50:15.474Z,16.50
2023-05-14T04:52:43.496Z,14.65
2023-05-14T04:55:11.107Z,15.13
2023-05-14T04:57:38.993Z,14.63
2023-05-14T05:00:07.481Z,14.77
2023-05-14T05:02:35.595Z,14.77
2023-05-14T05:05:04.316Z,14.27
2023-05-14T05:07:32.308Z,13.75
2023-05-14T05:10:00.635Z,14.02
2023-05-14T05:12:30.258Z,13.15
2023-05-14T05:14:58.157Z,12.95
2023-05-14T05:17:26.154Z,12.48
2023-05-14T05:19:53.887Z,11.40
2023-05-14T05:22:21.914Z,11.15
2023-05-14T05:24:50.054Z,12.05
2023-05-14T05:27:18.129Z,10.98
2023-05-14T05:29:46.266Z,10.35
2023-05-14T05:32:14.306Z,11.15
2023-05-14T05:34:42.105Z,9.80
2023-05-14T05:37:12.820Z,11.05
2023-05-14T05:39:40.808Z,11.32
2023-05-14T05:42:08.813Z,10.70
2023-05-14T05:44:36.525Z,10.07
2023-05-14T05:47:04.716Z,10.15
2023-05-14T05:49:32.570Z,9.57
2023-05-14T05:52:00.646Z,9.23
2023-05-14T05:54:28.285Z,9.68
2023-05-14T05:56:56.486Z,8.90
2023-05-14T05:59:24.640Z,8.73
2023-05-14T06:01:52.950Z,9.10
2023-05-14T06:04:20.705Z,8.73
2023-05-14T06:06:48.808Z,8.93
2023-05-14T06:09:16.474Z,8.02
2023-05-14T06:11:44.480Z,8.70
2023-05-14T06:14:12.107Z,8.48
2023-05-14T06:16:40.135Z,8.63
2023-05-14T06:19:08.617Z,7.63
2023-05-14T06:21:36.798Z,8.38
2023-05-14T06:24:04.768Z,8.10
2023-05-14T06:26:33.067Z,8.05
2023-05-14T06:29:01.152Z,8.07
2023-05-14T06:31:29.217Z,8.05
2023-05-14T06:33:56.857Z,7.20
2023-05-14T06:36:24.975Z,7.30
2023-05-14T06:38:52.688Z,7.57
2023-05-14T06:41:21.288Z,7.35
2023-05-14T06:43:49.126Z,6.97
2023-05-14T06:46:17.055Z,7.40
2023-05-14T06:48:44.766Z,7.32
2023-05-14T06:51:13.411Z,7.28
2023-05-14T06:53:41.578Z,6.53
2023-05-14T06:56:09.520Z,6.50
2023-05-14T06:58:37.220Z,6.47
2023-05-14T07:01:05.398Z,6.30
2023-05-14T07:03:33.162Z,6.38
2023-05-14T07:06:01.135Z,6.15
2023-05-14T07:08:28.825Z,5.95
2023-05-14T07:10:57.465Z,5.20
2023-05-14T07:13:28.329Z,5.40
2023-05-14T07:15:56.839Z,5.50
2023-05-14T07:18:24.656Z,5.05
2023-05-14T07:20:52.554Z,4.65
2023-05-14T07:23:20.328Z,3.97
2023-05-14T07:25:48.231Z,4.55
2023-05-14T07:28:15.873Z,4.50
2023-05-14T07:30:43.851Z,4.35
2023-05-14T07:33:11.496Z,4.43
2023-05-14T07:35:39.521Z,3.88
2023-05-14T07:38:07.360Z,3.90
2023-05-14T07:40:35.679Z,3.72
2023-05-14T07:43:03.298Z,4.15
2023-05-14T07:45:31.202Z,3.90
2023-05-14T07:47:59.022Z,3.95
2023-05-14T07:50:27.230Z,4.35
2023-05-14T07:52:55.571Z,4.47
2023-05-14T07:55:23.602Z,4.53
2023-05-14T07:57:51.383Z,4.60
2023-05-14T08:00:19.444Z,3.88
2023-05-14T08:02:49.259Z,3.17
2023-05-14T08:05:18.096Z,3.50
2023-05-14T08:07:45.811Z,3.88
2023-05-14T08:10:13.876Z,4.05
2023-05-14T08:12:42.764Z,3.97
2023-05-14T08:15:11.081Z,3.65
2023-05-14T08:17:38.871Z,4.15
2023-05-14T08:20:07.670Z,4.03
2023-05-14T08:22:35.321Z,3.63
2023-05-14T08:25:03.963Z,3.92
2023-05-14T08:27:32.197Z,4.03
2023-05-14T08:30:00.504Z,3.78
2023-05-14T08:32:28.386Z,4.07
2023-05-14T08:34:56.390Z,4.10
2023-05-14T08:37:24.137Z,4.82
2023-05-14T08:39:52.134Z,3.92
2023-05-14T08:42:24.358Z,4.40
2023-05-14T08:45:04.708Z,4.55
2023-05-14T08:47:32.498Z,4.30
2023-05-14T08:50:08.288Z,4.20
2023-05-14T08:52:37.367Z,3.90
2023-05-14T08:55:06.885Z,3.90
2023-05-14T08:57:35.145Z,3.50
2023-05-14T09:00:13.644Z,3.65
2023-05-14T09:02:44.467Z,3.60
2023-05-14T09:05:13.241Z,3.60
2023-05-14T09:07:41.334Z,3.90
2023-05-14T09:10:10.228Z,3.20
2023-05-14T09:12:38.036Z,3.90
2023-05-14T09:15:06.745Z,3.40
2023-05-14T09:17:34.637Z,3.70
2023-05-14T09:20:03.114Z,3.58
2023-05-14T09:22:33.996Z,3.33
2023-05-14T09:25:07.382Z,3.38
2023-05-14T09:27:35.609Z,3.30
2023-05-14T09:30:11.732Z,3.22
2023-05-14T09:32:40.954Z,3.55
2023-05-14T09:35:18.341Z,3.33
2023-05-14T09:37:51.978Z,3.40
2023-05-14T09:40:22.037Z,3.10
2023-05-14T09:42:50.532Z,3.20
2023-05-14T09:45:18.674Z,3.50
2023-05-14T09:47:46.526Z,3.17
2023-05-14T09:50:14.843Z,3.40
2023-05-14T09:52:43.000Z,3.00
2023-05-14T09:55:11.122Z,3.30
2023-05-14T09:57:38.888Z,3.50
2023-05-14T10:00:08.704Z,3.42
2023-05-14T10:02:38.161Z,3.17
2023-05-14T10:05:08.014Z,2.97
2023-05-14T10:07:46.623Z,2.80
2023-05-14T10:10:19.267Z,3.42
2023-05-14T10:12:58.094Z,3.05
2023-05-14T10:15:37.613Z,3.00
2023-05-14T10:18:12.920Z,3.38
2023-05-14T10:20:42.152Z,3.55
2023-05-14T10:23:09.974Z,3.35
2023-05-14T10:25:38.340Z,3.03
2023-05-14T10:28:06.499Z,3.28
2023-05-14T10:30:34.572Z,3.70
2023-05-14T10:33:09.575Z,3.03
2023-05-14T10:36:00.609Z,3.70
2023-05-14T10:38:29.812Z,3.20
2023-05-14T10:41:11.729Z,3.10
2023-05-14T10:43:41.627Z,3.13
2023-05-14T10:46:11.597Z,3.10
2023-05-14T10:48:43.088Z,3.05
2023-05-14T10:51:12.093Z,3.25
2023-05-14T10:53:42.515Z,3.38
2023-05-14T10:56:12.894Z,3.17
2023-05-14T10:58:45.085Z,3.35
2023-05-14T11:01:13.906Z,3.42
2023-05-14T11:03:46.703Z,2.78
2023-05-14T11:06:16.376Z,3.60
2023-05-14T11:08:46.407Z,3.08
2023-05-14T11:11:14.974Z,3.17
2023-05-14T11:13:44.486Z,3.40
2023-05-14T11:16:23.268Z,3.10
2023-05-14T11:19:03.611Z,2.70
2023-05-14T11:21:32.929Z,3.50
2023-05-14T11:24:01.636Z,2.88
2023-05-14T11:26:29.586Z,3.05
2023-05-14T11:28:57.384Z,2.88
2023-05-14T11:31:26.460Z,3.05
2023-05-14T11:33:54.325Z,2.67
2023-05-14T11:36:22.905Z,3.10
2023-05-14T11:38:52.371Z,3.17
2023-05-14T11:41:22.882Z,2.83
2023-05-14T11:43:50.862Z,2.60
2023-05-14T11:46:19.040Z,2.90
2023-05-14T11:48:46.950Z,2.78
2023-05-14T11:51:14.930Z,2.60
2023-05-14T11:53:42.679Z,2.78
2023-05-14T11:56:11.241Z,3.30
2023-05-14T11:58:38.953Z,2.58
2023-05-14T12:01:06.892Z,3.30
2023-05-14T12:03:35.255Z,2.95
2023-05-14T12:06:08.197Z,3.10
2023-05-14T12:08:37.687Z,3.45
2023-05-14T12:11:05.765Z,3.00
2023-05-14T12:13:33.602Z,3.03
2023-05-14T12:16:02.550Z,4.07
2023-05-14T12:18:32.424Z,4.10
2023-05-14T12:21:04.520Z,3.03
2023-05-14T12:23:33.029Z,2.80
2023-05-14T12:26:06.817Z,2.97
2023-05-14T12:28:38.843Z,2.53
2023-05-14T12:31:06.988Z,2.97
2023-05-14T12:33:34.770Z,2.80
2023-05-14T12:36:14.036Z,3.03
2023-05-14T12:38:49.579Z,2.63
2023-05-14T12:41:18.473Z,2.80
2023-05-14T12:43:49.654Z,2.88
2023-05-14T12:46:17.822Z,2.45
2023-05-14T12:48:46.477Z,2.67
2023-05-14T12:51:14.518Z,3.25
2023-05-14T12:53:42.218Z,2.88
2023-05-14T12:56:10.418Z,2.65
2023-05-14T12:58:38.299Z,2.60
2023-05-14T13:01:06.944Z,2.75
2023-05-14T13:03:34.787Z,2.75
2023-05-14T13:06:02.748Z,2.65
2023-05-14T13:08:30.590Z,2.83
2023-05-14T13:10:58.540Z,3.00
2023-05-14T13:13:26.356Z,2.97
2023-05-14T13:15:54.254Z,3.00
2023-05-14T13:18:21.974Z,2.70
2023-05-14T13:20:49.916Z,2.50
2023-05-14T13:23:17.605Z,2.65
2023-05-14T13:25:47.975Z,2.58
2023-05-14T13:28:16.877Z,2.95
2023-05-14T13:31:07.521Z,2.80
2023-05-14T13:33:36.747Z,3.10
2023-05-14T13:36:05.372Z,2.60
2023-05-14T13:38:33.083Z,3.50
2023-05-14T13:41:04.018Z,2.65
2023-05-14T13:43:35.984Z,2.75
2023-05-14T13:46:06.033Z,3.10
2023-05-14T13:48:34.478Z,2.80
2023-05-14T13:51:02.493Z,2.92
2023-05-14T13:53:30.598Z,2.92
2023-05-14T13:56:00.898Z,2.40
2023-05-14T13:58:28.732Z,2.80
2023-05-14T14:00:57.031Z,2.80
2023-05-14T14:03:25.145Z,2.58
2023-05-14T14:05:53.267Z,3.20
2023-05-14T14:08:23.939Z,3.03
2023-05-14T14:10:55.331Z,2.47
2023-05-14T14:13:23.433Z,2.97
2023-05-14T14:15:51.628Z,3.20
2023-05-14T14:18:19.520Z,3.15
2023-05-14T14:20:47.688Z,2.95
2023-05-14T14:23:15.465Z,2.60
2023-05-14T14:25:43.662Z,2.80
2023-05-14T14:28:11.352Z,2.50
2023-05-14T14:30:39.377Z,2.90
2023-05-14T14:33:07.216Z,2.92
2023-05-14T14:35:36.326Z,3.05
2023-05-14T14:38:04.044Z,2.80
2023-05-14T14:40:34.154Z,3.03
2023-05-14T14:43:02.276Z,2.72
2023-05-14T14:45:30.393Z,2.85
2023-05-14T14:48:27.716Z,2.95
2023-05-14T14:50:55.904Z,2.83
2023-05-14T14:53:24.482Z,2.97
2023-05-14T14:55:53.002Z,2.83
2023-05-14T14:58:21.483Z,2.70
2023-05-14T15:00:52.220Z,3.08
2023-05-14T15:03:20.301Z,2.72
2023-05-14T15:05:48.719Z,2.67
2023-05-14T15:08:16.644Z,2.85
2023-05-14T15:10:45.794Z,3.13
2023-05-14T15:13:13.679Z,3.20
2023-05-14T15:15:41.610Z,3.10
2023-05-14T15:18:09.454Z,2.88
2023-05-14T15:20:37.985Z,2.80
2023-05-14T15:23:06.140Z,2.78
2023-05-14T15:25:34.198Z,2.85
2023-05-14T15:28:01.946Z,3.03
2023-05-14T15:30:30.363Z,3.20
2023-05-14T15:32:58.194Z,2.83
2023-05-14T15:35:26.624Z,3.20
2023-05-14T15:37:57.303Z,3.40
2023-05-14T15:40:26.822Z,3.10
2023-05-14T15:42:54.597Z,3.00
2023-05-14T15:45:22.744Z,2.67
2023-05-14T15:47:50.376Z,2.72
2023-05-14T15:50:18.711Z,3.00
2023-05-14T15:52:46.617Z,2.58
2023-05-14T15:55:14.803Z,2.83
2023-05-14T15:57:42.443Z,2.90
2023-05-14T16:00:11.240Z,2.70
2023-05-14T16:02:40.295Z,3.03
2023-05-14T16:05:08.938Z,3.10
2023-05-14T16:07:37.178Z,3.25
2023-05-14T16:10:06.065Z,2.90
2023-05-14T16:12:33.870Z,2.90
2023-05-14T16:15:02.006Z,3.08
2023-05-14T16:17:31.828Z,3.00
2023-05-14T16:20:01.200Z,3.20
2023-05-14T16:22:32.842Z,3.45
2023-05-14T16:25:03.166Z,4.35
2023-05-14T16:27:31.784Z,3.67
2023-05-14T16:29:59.796Z,3.53
2023-05-14T16:32:27.978Z,4.43
2023-05-14T16:34:56.588Z,4.25
2023-05-14T16:37:24.426Z,3.40
2023-05-14T16:39:52.469Z,3.15
2023-05-14T16:42:20.414Z,3.10
2023-05-14T16:44:48.400Z,3.20
2023-05-14T16:47:16.242Z,3.58
2023-05-14T16:49:44.224Z,3.10
2023-05-14T16:52:11.931Z,3.17
2023-05-14T16:54:40.068Z,3.25
2023-05-14T16:57:07.725Z,3.50
2023-05-14T16:59:36.184Z,3.45
2023-05-14T17:02:03.987Z,3.45
2023-05-14T17:04:33.429Z,3.50
2023-05-14T17:07:01.549Z,3.45
2023-05-14T17:09:29.449Z,3.25
2023-05-14T17:11:57.184Z,3.17
2023-05-14T17:14:25.159Z,2.97
2023-05-14T17:16:53.670Z,3.45
2023-05-14T17:19:21.570Z,3.53
2023-05-14T17:21:49.293Z,3.50
2023-05-14T17:24:17.228Z,3.63
2023-05-14T17:26:44.890Z,3.88
2023-05-14T17:29:12.783Z,3.25
2023-05-14T17:31:40.542Z,3.40
2023-05-14T17:34:08.610Z,3.80
2023-05-14T17:36:36.452Z,3.80
2023-05-14T17:39:04.381Z,3.47
2023-05-14T17:41:32.154Z,3.85
2023-05-14T17:44:00.258Z,3.85
2023-05-14T17:46:28.094Z,3.90
2023-05-14T17:48:56.373Z,3.90
2023-05-14T17:51:23.996Z,4.32
2023-05-14T17:53:52.037Z,4.10
2023-05-14T17:56:20.935Z,4.50
2023-05-14T17:58:49.788Z,4.22
2023-05-14T18:01:17.549Z,4.80
2023-05-14T18:03:45.685Z,4.22
2023-05-14T18:06:13.481Z,4.63
2023-05-14T18:08:41.798Z,4.65
2023-05-14T18:11:10.309Z,4.60
2023-05-14T18:13:38.283Z,4.28
2023-05-14T18:16:06.259Z,4.85
2023-05-14T18:18:34.521Z,5.50
2023-05-14T18:21:02.622Z,4.82
2023-05-14T18:23:31.492Z,4.68
2023-05-14T18:25:59.462Z,5.25
2023-05-14T18:28:27.888Z,6.95
2023-05-14T18:30:55.689Z,12.40
2023-05-14T18:33:23.757Z,9.50
2023-05-14T18:35:51.740Z,9.90
2023-05-14T18:38:19.892Z,9.43
2023-05-14T18:40:47.614Z,7.60
2023-05-14T18:43:16.808Z,8.40
2023-05-14T18:45:48.367Z,9.10
2023-05-14T18:48:16.573Z,9.75
2023-05-14T18:50:44.327Z,10.23
2023-05-14T18:53:12.276Z,8.07
2023-05-14T18:55:39.986Z,9.70
2023-05-14T18:58:08.729Z,8.90
2023-05-14T19:00:36.403Z,7.93
2023-05-14T19:03:04.504Z,6.97
2023-05-14T19:05:32.339Z,6.55
2023-05-14T19:08:01.057Z,6.57
2023-05-14T19:10:28.879Z,6.93
2023-05-14T19:12:57.632Z,6.50
2023-05-14T19:15:25.833Z,6.60
2023-05-14T19:17:54.232Z,7.18
2023-05-14T19:20:21.980Z,6.97
2023-05-14T19:22:50.076Z,6.72
2023-05-14T19:25:17.777Z,7.13
2023-05-14T19:27:47.883Z,7.88
2023-05-14T19:30:15.681Z,8.15
2023-05-14T19:32:43.666Z,9.10
2023-05-14T19:35:11.719Z,9.10
2023-05-14T19:37:39.688Z,8.90
2023-05-14T19:40:07.976Z,8.93
2023-05-14T19:42:35.886Z,10.05
2023-05-14T19:45:04.036Z,8.63
2023-05-14T19:47:32.113Z,8.93
2023-05-14T19:50:00.144Z,9.13
2023-05-14T19:52:28.034Z,9.40
2023-05-14T19:54:55.757Z,10.35
2023-05-14T19:57:23.693Z,10.07
2023-05-14T19:59:51.370Z,10.20
2023-05-14T20:02:21.747Z,10.43
2023-05-14T20:04:50.755Z,9.75
2023-05-14T20:07:18.666Z,9.95
2023-05-14T20:09:46.739Z,10.52
2023-05-14T20:12:14.839Z,9.70
2023-05-14T20:14:42.614Z,11.38
2023-05-14T20:17:10.677Z,10.93
2023-05-14T20:19:38.482Z,10.70
2023-05-14T20:22:06.444Z,9.98
2023-05-14T20:24:34.100Z,9.98
2023-05-14T20:27:02.098Z,9.55
2023-05-14T20:29:29.879Z,9.65
2023-05-14T20:31:57.784Z,9.18
2023-05-14T20:34:25.501Z,8.77
2023-05-14T20:36:53.532Z,9.40
2023-05-14T20:39:21.262Z,9.30
2023-05-14T20:41:49.301Z,9.50
2023-05-14T20:44:18.378Z,10.38
2023-05-14T20:46:47.956Z,11.43
2023-05-14T20:49:15.677Z,11.85
2023-05-14T20:51:43.653Z,11.85
2023-05-14T20:54:11.256Z,14.18
2023-05-14T20:56:39.215Z,14.32
2023-05-14T20:59:06.799Z,15.95
2023-05-14T21:01:34.885Z,14.63
2023-05-14T21:04:02.720Z,13.00
2023-05-14T21:06:30.781Z,13.32
2023-05-14T21:08:58.454Z,11.25
2023-05-14T21:11:26.355Z,10.30
2023-05-14T21:13:54.313Z,10.98
2023-05-14T21:16:22.432Z,11.50
2023-05-14T21:18:50.360Z,10.50
2023-05-14T21:21:18.414Z,9.85
2023-05-14T21:23:46.122Z,8.88
2023-05-14T21:26:14.110Z,8.93
2023-05-14T21:28:41.801Z,8.77
2023-05-14T21:31:09.888Z,8.73
2023-05-14T21:33:37.544Z,8.55
2023-05-14T21:36:05.946Z,8.32
2023-05-14T21:38:34.011Z,8.70
2023-05-14T21:41:02.054Z,9.02
2023-05-14T21:43:29.803Z,9.15
2023-05-14T21:45:57.769Z,9.05
2023-05-14T21:48:25.746Z,8.18
2023-05-14T21:50:53.840Z,8.65
2023-05-14T21:53:21.538Z,8.35
2023-05-14T21:55:50.010Z,8.40
2023-05-14T21:58:19.177Z,7.03
2023-05-14T22:00:47.259Z,7.47
2023-05-14T22:03:14.995Z,7.75
2023-05-14T22:05:43.290Z,7.35
2023-05-14T22:08:11.757Z,7.03
2023-05-14T22:10:39.734Z,7.15
2023-05-14T22:13:07.411Z,7.05
2023-05-14T22:15:35.499Z,6.53
2023-05-14T22:18:03.379Z,6.05
2023-05-14T22:20:31.461Z,6.78
2023-05-14T22:22:59.113Z,6.03
2023-05-14T22:25:27.317Z,5.97
2023-05-14T22:27:55.231Z,6.50
2023-05-14T22:30:23.258Z,6.20
2023-05-14T22:32:51.041Z,6.50
2023-05-14T22:35:18.995Z,5.47
2023-05-14T22:37:46.673Z,6.82
2023-05-14T22:40:15.641Z,5.97
2023-05-14T22:42:43.542Z,5.80
2023-05-14T22:45:11.596Z,5.85
2023-05-14T22:47:39.392Z,6.10
2023-05-14T22:50:11.519Z,5.40
2023-05-14T22:52:40.315Z,5.78
2023-05-14T22:55:08.828Z,4.90
2023-05-14T22:57:36.795Z,5.45
2023-05-14T23:00:07.903Z,5.43
2023-05-14T23:02:35.783Z,5.03
2023-05-14T23:05:04.216Z,4.97
2023-05-14T23:07:32.136Z,5.18
2023-05-14T23:10:00.102Z,5.15
2023-05-14T23:12:27.803Z,4.85
2023-05-14T23:14:55.862Z,5.13
2023-05-14T23:17:23.613Z,4.70
2023-05-14T23:19:52.148Z,4.10
2023-05-14T23:22:20.361Z,4.90
2023-05-14T23:24:48.308Z,4.57
2023-05-14T23:27:16.128Z,4.70
2023-05-14T23:29:44.038Z,4.55
2023-05-14T23:32:11.766Z,4.45
2023-05-14T23:34:39.822Z,4.63
2023-05-14T23:37:07.744Z,4.97
2023-05-14T23:39:35.789Z,4.78
2023-05-14T23:42:03.547Z,4.80
2023-05-14T23:44:31.445Z,4.35
2023-05-14T23:46:59.159Z,5.10
2023-05-14T23:49:27.807Z,4.78
2023-05-14T23:51:55.472Z,4.53
2023-05-14T23:54:23.465Z,4.60
2023-05-14T23:56:52.572Z,4.68
2023-05-14T23:59:20.489Z,5.30
